Time;durP1;ratioP1;P1;durP2;ratioP2;P2;SDS_P1;SDS_P2;PMS_P1;PMS_P2;Temp;Humidity;BMP_temperature;BMP_pressure;BME280_temperature;BME280_humidity;BME280_pressure;Samples;Min_cycle;Max_cycle;Signal;HPM_P1;HPM_P2
2021/07/12 00:00:21;;;;;;;33.40;30.60;;;;;;;;;;4961449;28;20227;-70
2021/07/12 00:03:07;;;;;;;34.40;31.53;;;;;;;;;;4954516;28;20264;-70
2021/07/12 00:05:52;;;;;;;33.50;30.67;;;;;;;;;;4957538;28;20204;-70
2021/07/12 00:08:37;;;;;;;36.40;33.27;;;;;;;;;;4964656;28;20216;-71
2021/07/12 00:11:41;;;;;;;36.60;33.50;;;;;;;;;;4953461;28;20860;-72
2021/07/12 00:14:47;;;;;;;35.83;32.83;;;;;;;;;;4953333;28;20962;-70
2021/07/12 00:17:32;;;;;;;37.70;34.40;;;;;;;;;;4954998;28;20212;-70
2021/07/12 00:20:17;;;;;;;37.23;33.93;;;;;;;;;;4957752;28;20255;-69
2021/07/12 00:23:02;;;;;;;40.47;36.73;;;;;;;;;;4955080;28;20427;-69
2021/07/12 00:25:48;;;;;;;39.93;36.47;;;;;;;;;;4953252;28;20215;-69
2021/07/12 00:28:33;;;;;;;41.40;37.67;;;;;;;;;;4954716;28;20259;-70
2021/07/12 00:31:19;;;;;;;41.43;37.73;;;;;;;;;;4964541;28;20236;-70
2021/07/12 00:34:04;;;;;;;41.60;37.90;;;;;;;;;;4951114;28;20325;-69
2021/07/12 00:36:49;;;;;;;42.10;38.30;;;;;;;;;;4952431;29;20221;-71
2021/07/12 00:39:34;;;;;;;41.67;37.87;;;;;;;;;;4951770;29;20356;-70
2021/07/12 00:42:19;;;;;;;41.50;37.67;;;;;;;;;;4952249;29;20207;-70
2021/07/12 00:45:07;;;;;;;40.27;36.67;;;;;;;;;;4952582;28;20265;-70
2021/07/12 00:47:54;;;;;;;39.67;35.93;;;;;;;;;;4961028;28;20247;-70
2021/07/12 00:50:40;;;;;;;39.13;35.83;;;;;;;;;;4952234;28;20315;-70
2021/07/12 00:53:25;;;;;;;45.35;41.55;;;;;;;;;;4958536;28;20936;-70
2021/07/12 00:56:10;;;;;;;38.37;35.03;;;;;;;;;;4958141;28;20315;-70
2021/07/12 00:58:55;;;;;;;39.10;35.50;;;;;;;;;;4963761;28;20206;-70
2021/07/12 01:01:40;;;;;;;38.77;35.37;;;;;;;;;;4977517;28;20323;-70
2021/07/12 01:04:26;;;;;;;37.13;33.83;;;;;;;;;;4973197;28;20636;-71
2021/07/12 01:07:11;;;;;;;34.40;31.40;;;;;;;;;;4971448;28;20207;-70
2021/07/12 01:09:56;;;;;;;36.57;33.47;;;;;;;;;;4971904;28;20546;-70
2021/07/12 01:12:43;;;;;;;36.63;33.47;;;;;;;;;;4970069;28;20328;-70
2021/07/12 01:15:33;;;;;;;36.03;32.93;;;;;;;;;;4971624;28;20289;-70
2021/07/12 01:18:23;;;;;;;36.23;33.00;;;;;;;;;;4969680;28;20233;-70
2021/07/12 01:21:37;;;;;;;38.20;35.00;;;;;;;;;;4953415;28;20255;-70
2021/07/12 01:24:37;;;;;;;37.10;33.80;;;;;;;;;;4970020;28;20228;-70
2021/07/12 01:27:40;;;;;;;38.27;34.97;;;;;;;;;;4956409;28;20204;-70
2021/07/12 01:30:31;;;;;;;41.25;37.75;;;;;;;;;;4946687;28;20424;-70
2021/07/12 01:33:21;;;;;;;37.30;34.00;;;;;;;;;;4952566;28;20738;-70
2021/07/12 01:36:07;;;;;;;35.80;32.80;;;;;;;;;;4952940;28;20597;-70
2021/07/12 01:38:56;;;;;;;35.73;32.80;;;;;;;;;;4951707;28;20309;-70
2021/07/12 01:41:47;;;;;;;35.83;32.73;;;;;;;;;;4959281;28;20232;-70
2021/07/12 01:44:38;;;;;;;36.53;33.53;;;;;;;;;;4952167;28;20697;-70
2021/07/12 01:47:29;;;;;;;35.33;32.33;;;;;;;;;;4954696;28;20232;-70
2021/07/12 01:50:21;;;;;;;40.10;36.90;;;;;;;;;;4968046;28;20454;-70
2021/07/12 01:53:12;;;;;;;35.87;32.97;;;;;;;;;;4971832;28;20209;-70
2021/07/12 01:55:59;;;;;;;35.83;32.73;;;;;;;;;;4955763;29;20227;-70
2021/07/12 01:58:46;;;;;;;34.17;31.40;;;;;;;;;;4955700;29;20284;-70
2021/07/12 02:01:32;;;;;;;34.67;31.77;;;;;;;;;;4955885;29;20588;-70
2021/07/12 02:04:19;;;;;;;34.20;31.23;;;;;;;;;;4956404;28;20215;-70
2021/07/12 02:07:05;;;;;;;36.03;32.93;;;;;;;;;;4966543;28;20216;-70
2021/07/12 02:09:51;;;;;;;33.27;30.47;;;;;;;;;;4961797;28;20235;-70
2021/07/12 02:12:37;;;;;;;34.77;31.90;;;;;;;;;;4957768;28;20248;-70
2021/07/12 02:15:23;;;;;;;36.00;32.90;;;;;;;;;;4955218;29;20225;-70
2021/07/12 02:18:09;;;;;;;34.57;31.43;;;;;;;;;;4963021;28;20227;-70
2021/07/12 02:20:55;;;;;;;34.53;31.63;;;;;;;;;;4972173;28;20611;-70
2021/07/12 02:23:42;;;;;;;36.77;33.73;;;;;;;;;;4963567;28;20685;-70
2021/07/12 02:26:28;;;;;;;35.43;32.43;;;;;;;;;;4954440;28;20221;-68
2021/07/12 02:29:15;;;;;;;35.70;32.60;;;;;;;;;;4961379;28;20210;-67
2021/07/12 02:32:00;;;;;;;36.27;33.13;;;;;;;;;;4959776;28;20788;-70
2021/07/12 02:34:45;;;;;;;37.77;34.53;;;;;;;;;;4960592;28;20192;-68
2021/07/12 02:37:32;;;;;;;36.27;33.17;;;;;;;;;;4955148;28;20219;-70
2021/07/12 02:40:19;;;;;;;35.20;32.10;;;;;;;;;;4965731;28;20760;-70
2021/07/12 02:43:05;;;;;;;36.33;33.03;;;;;;;;;;4955941;28;20216;-70
2021/07/12 02:45:51;;;;;;;34.57;31.57;;;;;;;;;;4961056;28;20212;-70
2021/07/12 02:48:36;;;;;;;39.60;36.60;;;;;;;;;;4961035;28;20636;-70
2021/07/12 02:51:22;;;;;;;36.20;33.10;;;;;;;;;;4966977;28;20227;-71
2021/07/12 02:54:09;;;;;;;35.20;32.30;;;;;;;;;;4954454;28;20289;-70
2021/07/12 02:56:56;;;;;;;33.37;30.57;;;;;;;;;;4963054;28;20310;-70
2021/07/12 02:59:41;;;;;;;36.13;33.07;;;;;;;;;;4965615;28;20726;-70
2021/07/12 03:02:26;;;;;;;34.57;31.70;;;;;;;;;;4967549;28;20208;-70
2021/07/12 03:05:11;;;;;;;34.40;31.53;;;;;;;;;;4954220;28;20217;-70
2021/07/12 03:08:02;;;;;;;34.70;31.73;;;;;;;;;;4966529;28;20260;-70
2021/07/12 03:10:49;;;;;;;33.30;30.43;;;;;;;;;;4965039;28;20228;-70
2021/07/12 03:13:39;;;;;;;35.20;32.17;;;;;;;;;;4959253;28;20219;-70
2021/07/12 03:16:26;;;;;;;31.67;29.07;;;;;;;;;;4969243;28;20788;-70
2021/07/12 03:19:13;;;;;;;34.90;31.70;;;;;;;;;;4953557;28;20208;-70
2021/07/12 03:22:01;;;;;;;35.03;31.97;;;;;;;;;;4954442;28;20224;-70
2021/07/12 03:24:47;;;;;;;36.87;33.60;;;;;;;;;;4954099;28;20231;-70
2021/07/12 03:27:32;;;;;;;38.60;35.20;;;;;;;;;;4963890;28;20207;-70
2021/07/12 03:30:19;;;;;;;38.17;34.83;;;;;;;;;;4964473;28;20244;-71
2021/07/12 03:33:05;;;;;;;38.50;35.10;;;;;;;;;;4956371;28;20216;-69
2021/07/12 03:35:52;;;;;;;36.80;33.50;;;;;;;;;;4966646;28;20278;-70
2021/07/12 03:38:39;;;;;;;36.00;32.90;;;;;;;;;;4972274;28;20216;-70
2021/07/12 03:41:24;;;;;;;33.63;30.73;;;;;;;;;;4963233;28;20227;-70
2021/07/12 03:44:10;;;;;;;37.33;34.20;;;;;;;;;;4952912;28;20445;-70
2021/07/12 03:46:56;;;;;;;34.97;31.97;;;;;;;;;;4954143;28;20566;-70
2021/07/12 03:49:41;;;;;;;33.47;30.77;;;;;;;;;;4953613;28;20268;-70
2021/07/12 03:52:26;;;;;;;36.43;33.43;;;;;;;;;;4954602;28;20241;-70
2021/07/12 03:55:12;;;;;;;35.40;32.20;;;;;;;;;;4953071;28;20280;-70
2021/07/12 03:57:58;;;;;;;36.27;33.27;;;;;;;;;;4969564;28;20344;-70
2021/07/12 04:00:43;;;;;;;37.80;34.33;;;;;;;;;;4969659;28;20356;-70
2021/07/12 04:03:30;;;;;;;40.17;36.50;;;;;;;;;;4971143;28;20211;-70
2021/07/12 04:06:15;;;;;;;36.37;33.13;;;;;;;;;;4963741;28;20569;-70
2021/07/12 04:09:00;;;;;;;38.73;35.30;;;;;;;;;;4960143;28;20221;-69
2021/07/12 04:11:49;;;;;;;36.23;32.90;;;;;;;;;;4963679;28;20248;-70
2021/07/12 04:14:34;;;;;;;38.03;34.70;;;;;;;;;;4959774;28;20263;-69
2021/07/12 04:17:19;;;;;;;38.37;35.10;;;;;;;;;;4962733;28;20223;-69
2021/07/12 04:20:06;;;;;;;40.37;36.77;;;;;;;;;;4955347;28;20237;-70
2021/07/12 04:22:51;;;;;;;35.77;32.57;;;;;;;;;;4959903;28;20219;-69
2021/07/12 04:25:36;;;;;;;39.07;35.67;;;;;;;;;;4972452;28;20204;-69
2021/07/12 04:28:21;;;;;;;37.20;33.80;;;;;;;;;;4958716;28;20269;-69
2021/07/12 04:31:06;;;;;;;38.17;34.80;;;;;;;;;;4952728;28;20713;-69
2021/07/12 04:33:51;;;;;;;36.37;33.27;;;;;;;;;;4952989;29;20217;-69
2021/07/12 04:36:37;;;;;;;34.97;32.03;;;;;;;;;;4952627;29;20263;-69
2021/07/12 04:39:22;;;;;;;37.27;33.97;;;;;;;;;;4952968;28;20201;-70
2021/07/12 04:42:07;;;;;;;36.47;33.40;;;;;;;;;;4952155;29;20263;-71
2021/07/12 04:44:52;;;;;;;36.70;33.43;;;;;;;;;;4952976;29;20577;-70
2021/07/12 04:47:36;;;;;;;34.00;31.30;;;;;;;;;;4952671;29;20213;-70
2021/07/12 04:50:21;;;;;;;33.23;30.50;;;;;;;;;;4952080;29;20254;-70
2021/07/12 04:53:07;;;;;;;33.30;30.50;;;;;;;;;;4952731;29;20212;-69
2021/07/12 04:55:52;;;;;;;33.80;31.10;;;;;;;;;;4952546;29;20224;-69
2021/07/12 04:58:43;;;;;;;34.93;32.07;;;;;;;;;;4953013;29;20217;-70
2021/07/12 05:01:32;;;;;;;33.70;30.90;;;;;;;;;;4952636;29;20421;-69
2021/07/12 05:04:16;;;;;;;32.97;30.33;;;;;;;;;;4952767;29;20693;-70
2021/07/12 05:07:01;;;;;;;34.13;31.23;;;;;;;;;;4952323;29;20334;-70
2021/07/12 05:09:48;;;;;;;34.27;31.37;;;;;;;;;;4952633;29;20777;-69
2021/07/12 05:12:33;;;;;;;35.23;32.33;;;;;;;;;;4952373;29;20220;-70
2021/07/12 05:15:18;;;;;;;33.67;30.87;;;;;;;;;;4958329;28;20216;-69
2021/07/12 05:18:03;;;;;;;31.20;28.40;;;;;;;;;;4971534;28;20302;-70
2021/07/12 05:20:48;;;;;;;33.37;30.57;;;;;;;;;;4970045;28;20246;-70
2021/07/12 05:23:33;;;;;;;34.23;31.23;;;;;;;;;;4957795;28;20719;-70
2021/07/12 05:26:19;;;;;;;32.00;29.30;;;;;;;;;;4963262;28;20204;-69
2021/07/12 05:29:05;;;;;;;32.30;29.70;;;;;;;;;;4973964;28;20231;-70
2021/07/12 05:31:49;;;;;;;31.03;28.63;;;;;;;;;;4966191;28;20208;-70
2021/07/12 05:34:35;;;;;;;31.93;29.33;;;;;;;;;;4956503;28;20205;-70
2021/07/12 05:37:20;;;;;;;30.57;28.17;;;;;;;;;;4955496;29;20232;-70
2021/07/12 05:40:06;;;;;;;35.05;32.42;;;;;;;;;;4955010;29;20514;-69
2021/07/12 05:42:52;;;;;;;33.03;30.17;;;;;;;;;;4956117;28;20311;-70
2021/07/12 05:45:37;;;;;;;32.60;29.83;;;;;;;;;;4955826;28;20207;-69
2021/07/12 05:48:22;;;;;;;31.23;28.53;;;;;;;;;;4955311;29;20706;-70
2021/07/12 05:51:07;;;;;;;33.30;30.50;;;;;;;;;;4955933;28;20313;-69
2021/07/12 05:53:52;;;;;;;32.70;30.07;;;;;;;;;;4955775;29;20219;-70
2021/07/12 05:56:38;;;;;;;30.40;27.90;;;;;;;;;;4955272;28;20702;-69
2021/07/12 05:59:24;;;;;;;32.13;29.47;;;;;;;;;;4956138;29;20223;-70
2021/07/12 06:02:09;;;;;;;33.23;30.63;;;;;;;;;;4965528;28;20336;-69
2021/07/12 06:04:54;;;;;;;34.00;31.30;;;;;;;;;;4965802;28;20643;-70
2021/07/12 06:07:39;;;;;;;33.40;30.80;;;;;;;;;;4965313;28;20574;-70
2021/07/12 06:10:25;;;;;;;32.80;29.90;;;;;;;;;;4957669;28;20228;-69
2021/07/12 06:13:10;;;;;;;33.40;30.47;;;;;;;;;;4970663;28;20281;-70
2021/07/12 06:15:56;;;;;;;30.87;28.57;;;;;;;;;;4966172;28;20215;-71
2021/07/12 06:18:41;;;;;;;33.17;30.50;;;;;;;;;;4961412;28;20204;-70
2021/07/12 06:21:26;;;;;;;31.67;29.17;;;;;;;;;;4954845;28;20247;-70
2021/07/12 06:24:11;;;;;;;30.33;28.07;;;;;;;;;;4955910;28;20224;-69
2021/07/12 06:26:56;;;;;;;31.27;28.67;;;;;;;;;;4958233;28;20714;-70
2021/07/12 06:29:41;;;;;;;31.00;28.43;;;;;;;;;;4954683;28;20289;-68
2021/07/12 06:32:28;;;;;;;30.70;28.23;;;;;;;;;;4955747;28;20220;-69
2021/07/12 06:35:14;;;;;;;30.83;28.43;;;;;;;;;;4965046;28;20207;-68
2021/07/12 06:37:59;;;;;;;32.35;29.85;;;;;;;;;;4961141;28;21012;-68
2021/07/12 06:40:43;;;;;;;31.43;29.00;;;;;;;;;;4959882;28;20224;-69
2021/07/12 06:43:28;;;;;;;31.63;29.23;;;;;;;;;;4957356;28;20288;-68
2021/07/12 06:46:14;;;;;;;30.27;27.87;;;;;;;;;;4955719;28;20727;-69
2021/07/12 06:49:01;;;;;;;30.73;28.40;;;;;;;;;;4956774;28;20338;-68
2021/07/12 06:51:46;;;;;;;30.13;27.93;;;;;;;;;;4970334;28;20234;-69
2021/07/12 06:54:31;;;;;;;29.90;27.60;;;;;;;;;;4958884;28;20253;-69
2021/07/12 06:57:16;;;;;;;30.13;27.83;;;;;;;;;;4970766;28;20230;-69
2021/07/12 07:00:02;;;;;;;28.60;26.40;;;;;;;;;;4954517;28;20231;-68
2021/07/12 07:02:47;;;;;;;28.37;26.27;;;;;;;;;;4954397;28;20273;-69
2021/07/12 07:05:33;;;;;;;28.57;26.37;;;;;;;;;;4962171;28;20357;-69
2021/07/12 07:08:18;;;;;;;25.17;23.37;;;;;;;;;;4960180;28;20208;-69
2021/07/12 07:11:03;;;;;;;27.13;25.23;;;;;;;;;;4955175;28;20289;-69
2021/07/12 07:13:48;;;;;;;27.40;25.20;;;;;;;;;;4953084;29;20212;-68
2021/07/12 07:16:33;;;;;;;25.93;23.93;;;;;;;;;;4953466;29;20732;-69
2021/07/12 07:19:18;;;;;;;26.40;24.20;;;;;;;;;;4954034;29;20233;-68
2021/07/12 07:22:05;;;;;;;23.80;22.00;;;;;;;;;;4953441;29;20209;-69
2021/07/12 07:24:51;;;;;;;24.80;22.83;;;;;;;;;;4953433;28;20752;-70
2021/07/12 07:27:36;;;;;;;23.83;22.03;;;;;;;;;;4953710;28;20637;-69
2021/07/12 07:30:22;;;;;;;24.83;22.77;;;;;;;;;;4954535;28;20399;-69
2021/07/12 07:33:07;;;;;;;24.83;23.03;;;;;;;;;;4969416;28;20344;-68
2021/07/12 07:35:52;;;;;;;24.63;22.75;;;;;;;;;;4953354;28;20448;-68
2021/07/12 07:38:38;;;;;;;24.23;22.30;;;;;;;;;;4961395;28;20221;-69
2021/07/12 07:41:24;;;;;;;23.30;21.60;;;;;;;;;;4960210;28;20236;-68
2021/07/12 07:44:10;;;;;;;24.23;22.43;;;;;;;;;;4959222;28;20204;-67
2021/07/12 07:46:55;;;;;;;22.70;20.90;;;;;;;;;;4953046;28;20200;-68
2021/07/12 07:49:40;;;;;;;22.17;20.57;;;;;;;;;;4963331;28;20216;-68
2021/07/12 07:52:25;;;;;;;21.80;20.10;;;;;;;;;;4962206;28;20220;-67
2021/07/12 07:55:13;;;;;;;22.53;20.73;;;;;;;;;;4953989;28;20216;-69
2021/07/12 07:57:58;;;;;;;21.13;19.47;;;;;;;;;;4953121;28;20229;-70
2021/07/12 08:00:43;;;;;;;20.47;18.77;;;;;;;;;;4963260;28;20828;-70
2021/07/12 08:03:28;;;;;;;19.50;18.10;;;;;;;;;;4964309;28;20630;-70
2021/07/12 08:06:13;;;;;;;20.10;18.60;;;;;;;;;;4953676;28;20216;-71
2021/07/12 08:08:58;;;;;;;19.87;18.33;;;;;;;;;;4956973;28;20212;-70
2021/07/12 08:11:46;;;;;;;23.55;21.60;;;;;;;;;;4962561;28;20472;-69
2021/07/12 08:14:31;;;;;;;20.13;18.63;;;;;;;;;;4955008;28;20209;-70
2021/07/12 08:17:16;;;;;;;17.10;15.87;;;;;;;;;;4967022;28;20353;-69
2021/07/12 08:20:01;;;;;;;18.80;17.37;;;;;;;;;;4960718;28;20236;-69
2021/07/12 08:22:47;;;;;;;19.07;17.67;;;;;;;;;;4952930;28;20294;-69
2021/07/12 08:25:32;;;;;;;17.30;15.93;;;;;;;;;;4953035;28;20292;-69
2021/07/12 08:28:19;;;;;;;16.57;15.17;;;;;;;;;;4966355;28;20676;-68
2021/07/12 08:31:04;;;;;;;18.17;16.67;;;;;;;;;;4968327;28;20260;-68
2021/07/12 08:33:49;;;;;;;14.67;13.53;;;;;;;;;;4953280;28;20423;-69
2021/07/12 08:36:34;;;;;;;13.10;12.03;;;;;;;;;;4977687;28;20208;-70
2021/07/12 08:39:19;;;;;;;15.97;14.63;;;;;;;;;;4966061;28;20259;-68
2021/07/12 08:42:04;;;;;;;10.20;9.33;;;;;;;;;;4972534;28;20234;-69
2021/07/12 08:44:50;;;;;;;7.67;7.07;;;;;;;;;;4978786;28;20215;-69
2021/07/12 08:47:35;;;;;;;8.90;8.10;;;;;;;;;;4983674;28;20223;-69
2021/07/12 08:50:21;;;;;;;7.40;6.87;;;;;;;;;;4983129;28;20276;-69
2021/07/12 08:53:07;;;;;;;7.10;6.50;;;;;;;;;;4981552;28;20735;-70
2021/07/12 08:55:52;;;;;;;9.53;8.87;;;;;;;;;;4961592;28;20202;-67
2021/07/12 08:58:37;;;;;;;11.67;10.77;;;;;;;;;;4980237;28;20239;-69
2021/07/12 09:01:23;;;;;;;12.30;11.20;;;;;;;;;;4987944;28;20235;-69
2021/07/12 09:04:09;;;;;;;11.20;10.30;;;;;;;;;;4978172;28;20903;-68
2021/07/12 09:06:58;;;;;;;13.70;12.73;;;;;;;;;;4977640;28;20235;-69
2021/07/12 09:09:56;;;;;;;12.90;12.00;;;;;;;;;;4970803;28;20259;-69
2021/07/12 09:12:43;;;;;;;14.60;13.50;;;;;;;;;;4954770;28;20208;-68
2021/07/12 09:15:28;;;;;;;15.07;13.97;;;;;;;;;;4961355;28;20347;-68
2021/07/12 09:18:16;;;;;;;13.10;12.10;;;;;;;;;;4972051;28;20247;-69
2021/07/12 09:21:12;;;;;;;16.03;14.60;;;;;;;;;;4961479;28;20231;-69
2021/07/12 09:24:11;;;;;;;13.70;12.70;;;;;;;;;;4984138;28;20243;-69
2021/07/12 09:26:58;;;;;;;12.73;11.73;;;;;;;;;;4959292;28;20398;-69
2021/07/12 09:29:44;;;;;;;13.77;12.60;;;;;;;;;;4980374;28;20260;-69
2021/07/12 09:32:30;;;;;;;11.47;10.57;;;;;;;;;;4962493;28;20717;-68
2021/07/12 09:35:17;;;;;;;14.07;10.53;;;;;;;;;;4955026;28;20208;-69
2021/07/12 09:38:03;;;;;;;13.57;12.47;;;;;;;;;;4970870;28;20278;-68
2021/07/12 09:40:47;;;;;;;13.13;12.13;;;;;;;;;;4973035;28;20740;-69
2021/07/12 09:43:33;;;;;;;12.43;11.43;;;;;;;;;;4952297;28;20244;-69
2021/07/12 09:46:28;;;;;;;12.30;11.50;;;;;;;;;;4960069;28;20336;-69
2021/07/12 09:49:14;;;;;;;11.10;10.30;;;;;;;;;;4952057;28;20689;-69
2021/07/12 09:52:03;;;;;;;12.80;11.80;;;;;;;;;;4951611;28;20369;-68
2021/07/12 09:54:49;;;;;;;11.77;10.87;;;;;;;;;;4952286;28;20205;-69
2021/07/12 09:57:34;;;;;;;10.40;9.50;;;;;;;;;;4951447;28;20590;-68
2021/07/12 10:00:20;;;;;;;10.40;9.60;;;;;;;;;;4951422;28;20224;-66
2021/07/12 10:03:06;;;;;;;10.90;10.10;;;;;;;;;;4959471;28;20701;-66
2021/07/12 10:05:52;;;;;;;9.70;8.77;;;;;;;;;;4951905;28;20303;-68
2021/07/12 10:08:38;;;;;;;10.07;9.27;;;;;;;;;;4953687;28;20578;-68
2021/07/12 10:11:23;;;;;;;9.33;8.70;;;;;;;;;;4968304;28;20723;-68
2021/07/12 10:14:08;;;;;;;8.47;7.83;;;;;;;;;;4965214;28;20605;-67
2021/07/12 10:16:53;;;;;;;10.60;9.73;;;;;;;;;;4954643;28;20208;-69
2021/07/12 10:19:38;;;;;;;8.40;7.70;;;;;;;;;;4955059;28;20212;-68
2021/07/12 10:22:24;;;;;;;9.00;8.20;;;;;;;;;;4954881;28;20721;-69
2021/07/12 10:25:13;;;;;;;9.18;8.48;;;;;;;;;;4955456;28;20490;-69
2021/07/12 10:27:58;;;;;;;9.23;8.33;;;;;;;;;;4966312;28;20690;-71
2021/07/12 10:30:45;;;;;;;9.20;8.47;;;;;;;;;;4955033;28;20308;-70
2021/07/12 10:33:32;;;;;;;9.37;8.60;;;;;;;;;;4964653;28;20208;-71
2021/07/12 10:36:32;;;;;;;9.97;9.17;;;;;;;;;;4965476;28;20208;-70
2021/07/12 10:39:19;;;;;;;8.93;8.23;;;;;;;;;;4957941;28;20208;-71
2021/07/12 10:42:06;;;;;;;7.53;7.03;;;;;;;;;;4955544;28;20707;-71
2021/07/12 10:45:09;;;;;;;7.10;6.70;;;;;;;;;;4963552;28;20609;-69
2021/07/12 10:48:04;;;;;;;7.27;6.77;;;;;;;;;;4960661;28;20207;-71
2021/07/12 10:50:50;;;;;;;8.23;7.63;;;;;;;;;;4973584;28;20219;-71
2021/07/12 10:53:39;;;;;;;7.43;6.90;;;;;;;;;;4964492;28;20621;-69
2021/07/12 10:56:24;;;;;;;7.93;7.30;;;;;;;;;;4965798;28;20333;-71
2021/07/12 10:59:23;;;;;;;6.50;6.10;;;;;;;;;;4954561;28;20208;-70
2021/07/12 11:02:23;;;;;;;6.63;6.13;;;;;;;;;;4961130;28;20204;-70
2021/07/12 11:05:08;;;;;;;5.97;5.57;;;;;;;;;;4956153;28;20716;-70
2021/07/12 11:07:56;;;;;;;5.50;5.10;;;;;;;;;;4958029;28;20224;-70
2021/07/12 11:10:51;;;;;;;5.50;5.10;;;;;;;;;;4954279;28;20232;-70
2021/07/12 11:13:48;;;;;;;6.70;6.20;;;;;;;;;;4954032;28;20207;-70
2021/07/12 11:16:38;;;;;;;6.53;6.03;;;;;;;;;;4953988;29;20227;-70
2021/07/12 11:19:24;;;;;;;6.40;6.00;;;;;;;;;;4953435;28;20326;-70
2021/07/12 11:22:25;;;;;;;7.97;7.40;;;;;;;;;;4953542;28;20528;-69
2021/07/12 11:25:10;;;;;;;7.73;7.23;;;;;;;;;;4969941;28;20700;-71
2021/07/12 11:28:07;;;;;;;6.47;5.97;;;;;;;;;;4953977;28;20212;-70
2021/07/12 11:30:53;;;;;;;6.97;6.47;;;;;;;;;;4954612;28;20231;-70
2021/07/12 11:33:40;;;;;;;6.50;5.90;;;;;;;;;;4971105;28;20259;-71
2021/07/12 11:36:26;;;;;;;6.97;6.47;;;;;;;;;;4966004;28;20215;-70
2021/07/12 11:39:14;;;;;;;7.27;6.67;;;;;;;;;;4967430;28;20227;-70
2021/07/12 11:41:59;;;;;;;7.00;6.50;;;;;;;;;;4972801;28;20220;-71
2021/07/12 11:44:48;;;;;;;7.20;6.60;;;;;;;;;;4958384;28;21013;-72
2021/07/12 11:47:35;;;;;;;7.17;6.57;;;;;;;;;;4957643;28;20340;-70
2021/07/12 11:50:22;;;;;;;6.70;6.20;;;;;;;;;;4953454;28;20880;-70
2021/07/12 11:53:07;;;;;;;6.10;5.50;;;;;;;;;;4953058;28;20240;-70
2021/07/12 11:55:52;;;;;;;5.80;5.30;;;;;;;;;;4960610;28;20318;-70
2021/07/12 11:58:37;;;;;;;5.60;5.30;;;;;;;;;;4964139;28;20817;-69
2021/07/12 12:01:22;;;;;;;5.50;5.10;;;;;;;;;;4959832;28;20251;-71
2021/07/12 12:04:07;;;;;;;5.77;5.30;;;;;;;;;;4957287;28;20222;-70
2021/07/12 12:06:53;;;;;;;6.60;6.00;;;;;;;;;;4956534;28;20211;-70
2021/07/12 12:09:48;;;;;;;5.37;5.03;;;;;;;;;;4956916;28;20460;-71
2021/07/12 12:12:34;;;;;;;5.47;5.07;;;;;;;;;;4953184;29;20308;-70
2021/07/12 12:15:21;;;;;;;5.80;5.30;;;;;;;;;;4974535;28;20275;-70
2021/07/12 12:18:08;;;;;;;5.83;5.43;;;;;;;;;;4964254;28;20231;-71
2021/07/12 12:20:54;;;;;;;6.40;5.95;;;;;;;;;;4957225;28;21047;-71
2021/07/12 12:23:40;;;;;;;5.83;5.40;;;;;;;;;;4967182;28;20328;-70
2021/07/12 12:26:27;;;;;;;5.30;5.00;;;;;;;;;;4966486;28;20213;-69
2021/07/12 12:29:14;;;;;;;5.27;4.97;;;;;;;;;;4953133;29;20264;-71
2021/07/12 12:31:59;;;;;;;6.67;6.17;;;;;;;;;;4955575;28;20730;-70
2021/07/12 12:34:44;;;;;;;6.67;6.07;;;;;;;;;;4967916;28;20212;-70
2021/07/12 12:37:36;;;;;;;7.47;6.97;;;;;;;;;;4970814;28;20215;-68
2021/07/12 12:40:23;;;;;;;7.17;6.60;;;;;;;;;;4965439;28;20232;-71
2021/07/12 12:43:11;;;;;;;7.13;6.63;;;;;;;;;;4952900;29;20329;-70
2021/07/12 12:45:59;;;;;;;7.83;7.20;;;;;;;;;;4961576;28;20290;-70
2021/07/12 12:48:44;;;;;;;6.80;6.40;;;;;;;;;;4951885;28;20260;-71
2021/07/12 12:51:31;;;;;;;8.53;7.93;;;;;;;;;;4959023;28;20356;-71
2021/07/12 12:54:16;;;;;;;7.77;7.17;;;;;;;;;;4952081;28;20774;-70
2021/07/12 12:57:04;;;;;;;8.03;7.53;;;;;;;;;;4966159;28;20211;-71
2021/07/12 12:59:49;;;;;;;7.80;7.30;;;;;;;;;;4955184;28;20236;-71
2021/07/12 13:02:37;;;;;;;7.10;6.60;;;;;;;;;;4952118;28;20842;-70
2021/07/12 13:05:25;;;;;;;6.77;6.20;;;;;;;;;;4952395;28;20299;-70
2021/07/12 13:08:10;;;;;;;8.33;6.60;;;;;;;;;;4952375;28;20205;-70
2021/07/12 13:10:57;;;;;;;8.47;6.80;;;;;;;;;;4952690;28;20301;-70
2021/07/12 13:13:43;;;;;;;8.43;7.63;;;;;;;;;;4952677;29;20208;-71
2021/07/12 13:16:28;;;;;;;9.40;8.50;;;;;;;;;;4952371;28;20444;-70
2021/07/12 13:19:13;;;;;;;9.37;8.47;;;;;;;;;;4966670;28;20235;-71
2021/07/12 13:21:58;;;;;;;9.50;8.53;;;;;;;;;;4967273;28;20204;-67
2021/07/12 13:24:44;;;;;;;7.60;7.10;;;;;;;;;;4954270;28;20208;-70
2021/07/12 13:27:30;;;;;;;8.77;8.00;;;;;;;;;;4964358;28;20287;-71
2021/07/12 13:30:18;;;;;;;7.50;6.80;;;;;;;;;;4967444;28;20244;-70
2021/07/12 13:33:04;;;;;;;8.60;7.70;;;;;;;;;;4963024;28;20200;-69
2021/07/12 13:35:49;;;;;;;9.00;8.20;;;;;;;;;;4952404;29;20578;-69
2021/07/12 13:38:34;;;;;;;8.53;7.93;;;;;;;;;;4959498;28;20224;-69
2021/07/12 13:41:19;;;;;;;8.20;7.60;;;;;;;;;;4951963;28;20253;-69
2021/07/12 13:44:04;;;;;;;8.00;7.50;;;;;;;;;;4967070;28;20704;-69
2021/07/12 13:46:50;;;;;;;8.07;7.57;;;;;;;;;;4955229;28;20255;-71
2021/07/12 13:49:35;;;;;;;7.00;6.50;;;;;;;;;;4974487;28;20208;-68
2021/07/12 13:52:21;;;;;;;7.32;6.82;;;;;;;;;;4966520;28;20426;-70
2021/07/12 13:55:06;;;;;;;7.57;7.07;;;;;;;;;;4955678;28;20219;-71
2021/07/12 13:57:54;;;;;;;7.07;6.47;;;;;;;;;;4961594;28;20211;-70
2021/07/12 14:00:41;;;;;;;7.30;6.80;;;;;;;;;;4963375;28;20247;-69
2021/07/12 14:03:29;;;;;;;7.60;7.00;;;;;;;;;;4957608;28;20299;-69
2021/07/12 14:06:14;;;;;;;7.00;6.50;;;;;;;;;;4954913;29;20213;-69
2021/07/12 14:08:59;;;;;;;6.70;6.30;;;;;;;;;;4954862;28;20208;-69
2021/07/12 14:11:44;;;;;;;6.93;6.53;;;;;;;;;;4954980;29;20269;-69
2021/07/12 14:14:30;;;;;;;6.70;6.30;;;;;;;;;;4954555;29;20421;-69
2021/07/12 14:17:15;;;;;;;6.67;6.17;;;;;;;;;;4954327;29;20438;-70
2021/07/12 14:20:01;;;;;;;6.57;6.07;;;;;;;;;;4954498;29;20252;-70
2021/07/12 14:22:47;;;;;;;6.80;6.30;;;;;;;;;;4954889;28;20209;-69
2021/07/12 14:25:32;;;;;;;6.80;6.10;;;;;;;;;;4966359;28;20279;-69
2021/07/12 14:28:17;;;;;;;6.83;6.33;;;;;;;;;;4963950;28;20266;-70
2021/07/12 14:31:02;;;;;;;7.03;6.53;;;;;;;;;;4955137;28;20474;-70
2021/07/12 14:33:47;;;;;;;6.77;6.27;;;;;;;;;;4965010;28;20209;-70
2021/07/12 14:36:34;;;;;;;8.10;7.60;;;;;;;;;;4960879;28;20204;-68
2021/07/12 14:39:19;;;;;;;6.80;6.30;;;;;;;;;;4956698;28;20728;-69
2021/07/12 14:42:05;;;;;;;7.03;6.60;;;;;;;;;;4960006;28;20251;-68
2021/07/12 14:44:50;;;;;;;7.53;6.93;;;;;;;;;;4954848;28;20205;-69
2021/07/12 14:47:36;;;;;;;7.43;6.97;;;;;;;;;;4955651;28;20671;-69
2021/07/12 14:50:21;;;;;;;7.77;7.33;;;;;;;;;;4963496;28;20616;-69
2021/07/12 14:53:09;;;;;;;7.70;7.20;;;;;;;;;;4955542;28;20220;-69
2021/07/12 14:55:57;;;;;;;8.13;7.47;;;;;;;;;;4960598;28;20336;-69
2021/07/12 14:58:44;;;;;;;9.27;8.60;;;;;;;;;;4964965;28;20315;-70
2021/07/12 15:01:29;;;;;;;8.43;7.80;;;;;;;;;;4956298;28;20332;-69
2021/07/12 15:04:14;;;;;;;8.90;8.30;;;;;;;;;;4965793;28;20303;-68
2021/07/12 15:06:59;;;;;;;9.43;8.70;;;;;;;;;;4962743;28;20213;-70
2021/07/12 15:09:45;;;;;;;9.40;8.70;;;;;;;;;;4962642;28;20287;-70
2021/07/12 15:12:30;;;;;;;9.10;8.50;;;;;;;;;;4969376;28;20404;-68
2021/07/12 15:15:15;;;;;;;10.40;9.67;;;;;;;;;;4954280;28;20261;-71
2021/07/12 15:18:00;;;;;;;10.20;9.50;;;;;;;;;;4972049;28;20279;-71
2021/07/12 15:20:46;;;;;;;10.70;10.00;;;;;;;;;;4953810;28;20236;-71
2021/07/12 15:23:31;;;;;;;10.63;9.73;;;;;;;;;;4968000;28;20770;-70
2021/07/12 15:26:17;;;;;;;11.57;10.63;;;;;;;;;;4956132;28;20205;-70
2021/07/12 15:29:02;;;;;;;10.37;9.57;;;;;;;;;;4961776;28;20964;-70
2021/07/12 15:31:48;;;;;;;10.50;9.70;;;;;;;;;;4963541;28;20236;-70
2021/07/12 15:34:33;;;;;;;10.37;9.57;;;;;;;;;;4960889;28;20209;-70
2021/07/12 15:37:18;;;;;;;9.77;9.17;;;;;;;;;;4956192;28;20204;-70
2021/07/12 15:40:03;;;;;;;9.60;8.80;;;;;;;;;;4954423;28;20236;-69
2021/07/12 15:42:50;;;;;;;11.77;10.77;;;;;;;;;;4961947;28;20212;-71
2021/07/12 15:45:35;;;;;;;12.37;11.47;;;;;;;;;;4973518;28;20223;-70
2021/07/12 15:48:20;;;;;;;11.33;10.53;;;;;;;;;;4953296;28;20224;-70
2021/07/12 15:51:05;;;;;;;12.60;11.70;;;;;;;;;;4953187;28;20785;-69
2021/07/12 15:53:50;;;;;;;12.90;12.00;;;;;;;;;;4957543;28;20565;-70
2021/07/12 15:56:35;;;;;;;11.80;11.10;;;;;;;;;;4963806;28;20215;-71
2021/07/12 15:59:21;;;;;;;12.87;11.97;;;;;;;;;;4957660;28;20228;-71
2021/07/12 16:02:06;;;;;;;12.17;11.37;;;;;;;;;;4953276;28;20313;-69
2021/07/12 16:04:54;;;;;;;12.07;11.27;;;;;;;;;;4953611;28;20216;-69
2021/07/12 16:07:39;;;;;;;12.47;11.67;;;;;;;;;;4953928;28;20212;-69
2021/07/12 16:10:24;;;;;;;12.87;12.07;;;;;;;;;;4953009;28;20315;-71
2021/07/12 16:13:09;;;;;;;12.57;11.67;;;;;;;;;;4953228;28;20208;-71
2021/07/12 16:15:56;;;;;;;13.07;12.07;;;;;;;;;;4952885;28;20235;-71
2021/07/12 16:18:41;;;;;;;12.90;12.00;;;;;;;;;;4967858;28;20215;-70